EUS18FG GCFV-EGPH
Flight info
| Callsign | EUS18FG |
|---|---|
| Flight time | N/A |
| Altitude | 38000 |
| Route | VASTO DCT NIDEB DCT TIGGI DCT BUSEN DCT PINEK DCT KORUL DCT DOLUR/N0436F390 DCT UNFIT DCT INFEC DCT KISWO DCT AVTIC DCT ANJAK/N0440F380 N38 NOKIN UP16 RIBEL DCT INPIP |
| Aircraft | A20N/M-SDE2E3FGHIRWXY/LB1 |
Departure
| Time | N/A |
|---|---|
| Airport | Fuerteventura Airport (GCFV) |
Arrival
| Time | 2026-04-23 23:56 |
|---|---|
| Airport | Edinburgh Airport (EGPH) |
| Time | Latitude | Longitude | Altitude | Speed | Heading |
|---|---|---|---|---|---|
| 2026-04-23 22:03 | 43.50869 | -7.68787 | 38025 ft | 484 kts | 24° |
| 2026-04-23 22:04 | 43.57094 | -7.65264 | 38016 ft | 484 kts | 24° |
| 2026-04-23 22:04 | 43.63312 | -7.61738 | 38015 ft | 484 kts | 24° |
| 2026-04-23 22:05 | 43.69546 | -7.58195 | 38017 ft | 484 kts | 24° |
| 2026-04-23 22:05 | 43.75760 | -7.54655 | 38020 ft | 483 kts | 24° |
| 2026-04-23 22:06 | 43.81977 | -7.51107 | 38020 ft | 483 kts | 24° |
| 2026-04-23 22:06 | 43.88186 | -7.47554 | 38019 ft | 483 kts | 24° |
| 2026-04-23 22:07 | 43.94365 | -7.44011 | 38022 ft | 483 kts | 24° |
| 2026-04-23 22:07 | 44.00572 | -7.40443 | 38031 ft | 483 kts | 24° |
| 2026-04-23 22:08 | 44.06785 | -7.36865 | 38029 ft | 483 kts | 24° |
| 2026-04-23 22:08 | 44.12984 | -7.33286 | 38029 ft | 483 kts | 24° |
| 2026-04-23 22:09 | 44.19185 | -7.29698 | 38034 ft | 482 kts | 24° |
| 2026-04-23 22:09 | 44.25385 | -7.26102 | 38044 ft | 482 kts | 24° |
| 2026-04-23 22:10 | 44.31576 | -7.22503 | 38049 ft | 482 kts | 24° |
| 2026-04-23 22:10 | 44.37764 | -7.18898 | 38034 ft | 481 kts | 24° |
| 2026-04-23 22:11 | 44.43939 | -7.15292 | 38032 ft | 481 kts | 24° |
| 2026-04-23 22:11 | 44.50105 | -7.11683 | 38039 ft | 480 kts | 24° |
| 2026-04-23 22:12 | 44.56261 | -7.08072 | 38029 ft | 479 kts | 24° |
| 2026-04-23 22:12 | 44.62411 | -7.04455 | 38032 ft | 479 kts | 24° |
| 2026-04-23 22:13 | 44.68543 | -7.00842 | 38035 ft | 478 kts | 24° |
| 2026-04-23 22:13 | 44.74668 | -6.97224 | 38029 ft | 477 kts | 24° |
| 2026-04-23 22:14 | 44.80787 | -6.93604 | 38032 ft | 477 kts | 24° |
| 2026-04-23 22:14 | 44.87032 | -6.90673 | 38028 ft | 477 kts | 14° |
| 2026-04-23 22:15 | 44.93491 | -6.88313 | 38034 ft | 476 kts | 15° |
| 2026-04-23 22:15 | 44.99855 | -6.85971 | 38033 ft | 476 kts | 15° |
| 2026-04-23 22:16 | 45.06271 | -6.83606 | 38026 ft | 476 kts | 15° |
| 2026-04-23 22:16 | 45.12680 | -6.81239 | 38032 ft | 476 kts | 15° |
| 2026-04-23 22:17 | 45.19084 | -6.78867 | 38032 ft | 476 kts | 15° |
| 2026-04-23 22:17 | 45.25497 | -6.76485 | 38044 ft | 476 kts | 15° |
| 2026-04-23 22:18 | 45.31901 | -6.74101 | 38048 ft | 476 kts | 15° |
| 2026-04-23 22:18 | 45.38310 | -6.71710 | 38049 ft | 476 kts | 15° |
| 2026-04-23 22:19 | 45.44708 | -6.69317 | 38049 ft | 476 kts | 15° |
| 2026-04-23 22:19 | 45.51118 | -6.66914 | 38055 ft | 476 kts | 14° |
| 2026-04-23 22:20 | 45.57513 | -6.64511 | 38056 ft | 475 kts | 15° |
| 2026-04-23 22:20 | 45.63907 | -6.62102 | 38058 ft | 475 kts | 14° |
| 2026-04-23 22:21 | 45.70301 | -6.59688 | 38063 ft | 475 kts | 14° |
| 2026-04-23 22:21 | 45.76683 | -6.57273 | 38060 ft | 474 kts | 14° |
| 2026-04-23 22:22 | 45.83060 | -6.54854 | 38057 ft | 474 kts | 14° |
| 2026-04-23 22:22 | 45.89432 | -6.52431 | 38059 ft | 473 kts | 14° |
| 2026-04-23 22:23 | 45.95795 | -6.50006 | 38062 ft | 473 kts | 14° |
| 2026-04-23 22:23 | 46.02144 | -6.47580 | 38060 ft | 472 kts | 14° |
| 2026-04-23 22:24 | 46.08484 | -6.45152 | 38058 ft | 472 kts | 14° |
| 2026-04-23 22:24 | 46.14835 | -6.42714 | 38064 ft | 471 kts | 14° |
| 2026-04-23 22:25 | 46.21119 | -6.40296 | 38066 ft | 470 kts | 14° |
| 2026-04-23 22:25 | 46.27447 | -6.37855 | 38060 ft | 470 kts | 14° |
| 2026-04-23 22:26 | 46.33761 | -6.35414 | 38064 ft | 470 kts | 14° |
| 2026-04-23 22:26 | 46.40071 | -6.32968 | 38067 ft | 469 kts | 14° |
| 2026-04-23 22:27 | 46.46374 | -6.30520 | 38065 ft | 469 kts | 14° |
| 2026-04-23 22:27 | 46.52683 | -6.28063 | 38067 ft | 469 kts | 14° |
| 2026-04-23 22:28 | 46.58979 | -6.25605 | 38070 ft | 469 kts | 14° |
| 2026-04-23 22:28 | 46.65278 | -6.23140 | 38075 ft | 469 kts | 14° |
| 2026-04-23 22:29 | 46.71571 | -6.20672 | 38074 ft | 468 kts | 14° |
| 2026-04-23 22:29 | 46.77869 | -6.18195 | 38077 ft | 468 kts | 14° |
| 2026-04-23 22:30 | 46.84156 | -6.15718 | 38088 ft | 468 kts | 14° |
| 2026-04-23 22:30 | 46.90448 | -6.13232 | 38090 ft | 468 kts | 14° |
| 2026-04-23 22:31 | 46.96723 | -6.10746 | 38088 ft | 467 kts | 14° |
| 2026-04-23 22:31 | 47.03000 | -6.08253 | 38095 ft | 467 kts | 14° |
| 2026-04-23 22:32 | 47.09265 | -6.05760 | 38095 ft | 466 kts | 14° |
| 2026-04-23 22:32 | 47.15528 | -6.03261 | 38100 ft | 466 kts | 14° |
| 2026-04-23 22:33 | 47.21778 | -6.00761 | 38100 ft | 465 kts | 14° |
| 2026-04-23 22:33 | 47.28014 | -5.98261 | 38104 ft | 464 kts | 14° |
| 2026-04-23 22:34 | 47.34245 | -5.95757 | 38106 ft | 463 kts | 14° |
| 2026-04-23 22:34 | 47.40425 | -5.93267 | 38104 ft | 463 kts | 14° |
| 2026-04-23 22:35 | 47.46668 | -5.90746 | 38104 ft | 462 kts | 14° |
| 2026-04-23 22:35 | 47.52861 | -5.88238 | 38107 ft | 461 kts | 14° |
| 2026-04-23 22:36 | 47.59042 | -5.85730 | 38107 ft | 460 kts | 14° |
| 2026-04-23 22:36 | 47.65217 | -5.83217 | 38109 ft | 459 kts | 14° |
| 2026-04-23 22:37 | 47.71333 | -5.80723 | 38110 ft | 459 kts | 14° |
| 2026-04-23 22:37 | 47.77489 | -5.78206 | 38112 ft | 458 kts | 13° |
| 2026-04-23 22:38 | 47.83635 | -5.75687 | 38112 ft | 458 kts | 13° |
| 2026-04-23 22:38 | 47.89775 | -5.73164 | 38115 ft | 458 kts | 13° |
| 2026-04-23 22:39 | 47.95911 | -5.70637 | 38115 ft | 457 kts | 13° |
| 2026-04-23 22:39 | 48.02052 | -5.68101 | 38121 ft | 457 kts | 13° |
| 2026-04-23 22:40 | 48.08183 | -5.65564 | 38123 ft | 457 kts | 13° |
| 2026-04-23 22:41 | 48.17375 | -5.61746 | 38129 ft | 457 kts | 13° |
| 2026-04-23 22:41 | 48.23498 | -5.59196 | 38142 ft | 457 kts | 13° |
| 2026-04-23 22:42 | 48.29622 | -5.56638 | 38142 ft | 457 kts | 13° |
| 2026-04-23 22:42 | 48.35742 | -5.54076 | 38146 ft | 456 kts | 13° |
| 2026-04-23 22:43 | 48.41854 | -5.51511 | 38158 ft | 456 kts | 13° |
| 2026-04-23 22:43 | 48.47962 | -5.48942 | 38159 ft | 455 kts | 13° |
| 2026-04-23 22:44 | 48.54066 | -5.46368 | 38164 ft | 455 kts | 13° |
| 2026-04-23 22:44 | 48.60158 | -5.43792 | 38166 ft | 454 kts | 13° |
| 2026-04-23 22:45 | 48.66242 | -5.41213 | 38164 ft | 454 kts | 13° |
| 2026-04-23 22:45 | 48.72312 | -5.38634 | 38165 ft | 453 kts | 13° |
| 2026-04-23 22:46 | 48.78377 | -5.36050 | 38167 ft | 452 kts | 12° |
| 2026-04-23 22:46 | 48.84423 | -5.33468 | 38170 ft | 451 kts | 12° |
| 2026-04-23 22:47 | 48.89447 | -5.31318 | 38183 ft | 451 kts | 12° |
| 2026-04-23 22:47 | 48.95483 | -5.28729 | 38177 ft | 450 kts | 12° |
| 2026-04-23 22:48 | 49.01514 | -5.26135 | 38177 ft | 450 kts | 12° |
| 2026-04-23 22:48 | 49.07528 | -5.23542 | 38185 ft | 449 kts | 12° |
| 2026-04-23 22:49 | 49.13544 | -5.20941 | 38187 ft | 449 kts | 12° |
| 2026-04-23 22:49 | 49.19547 | -5.18340 | 38199 ft | 448 kts | 12° |
| 2026-04-23 22:50 | 49.25549 | -5.15732 | 38202 ft | 448 kts | 12° |
| 2026-04-23 22:50 | 49.31548 | -5.13120 | 38204 ft | 448 kts | 12° |
| 2026-04-23 22:51 | 49.37541 | -5.10506 | 38204 ft | 448 kts | 12° |
| 2026-04-23 22:51 | 49.43533 | -5.07887 | 38211 ft | 448 kts | 12° |
| 2026-04-23 22:52 | 49.49483 | -5.05283 | 38214 ft | 447 kts | 12° |
| 2026-04-23 22:52 | 49.55519 | -5.03030 | 38223 ft | 446 kts | 9° |
| 2026-04-23 22:53 | 49.61570 | -5.00875 | 38224 ft | 446 kts | 9° |
| 2026-04-23 22:53 | 49.67613 | -4.98665 | 38229 ft | 447 kts | 9° |
| 2026-04-23 22:54 | 49.73645 | -4.96433 | 38231 ft | 447 kts | 9° |
| 2026-04-23 22:54 | 49.79703 | -4.94183 | 38237 ft | 447 kts | 9° |
| 2026-04-23 22:55 | 49.85759 | -4.91929 | 38238 ft | 447 kts | 9° |
| 2026-04-23 22:55 | 49.91809 | -4.89671 | 38238 ft | 448 kts | 9° |
| 2026-04-23 22:56 | 49.97865 | -4.87406 | 38238 ft | 448 kts | 9° |
| 2026-04-23 22:56 | 50.03928 | -4.85132 | 38244 ft | 448 kts | 9° |
| 2026-04-23 22:57 | 50.09991 | -4.82853 | 38249 ft | 448 kts | 9° |
| 2026-04-23 22:57 | 50.16058 | -4.80565 | 38257 ft | 449 kts | 9° |
| 2026-04-23 22:58 | 50.22126 | -4.78272 | 38266 ft | 449 kts | 9° |
| 2026-04-23 22:58 | 50.28199 | -4.75972 | 38268 ft | 449 kts | 10° |
| 2026-04-23 22:59 | 50.34268 | -4.73667 | 38271 ft | 449 kts | 10° |
| 2026-04-23 22:59 | 50.40332 | -4.71358 | 38277 ft | 449 kts | 10° |
| 2026-04-23 23:00 | 50.46398 | -4.69041 | 38278 ft | 448 kts | 10° |
| 2026-04-23 23:00 | 50.52449 | -4.66724 | 38283 ft | 447 kts | 10° |
| 2026-04-23 23:01 | 50.58495 | -4.64403 | 38283 ft | 447 kts | 10° |
| 2026-04-23 23:01 | 50.64488 | -4.62096 | 38291 ft | 446 kts | 10° |
| 2026-04-23 23:02 | 50.70552 | -4.59756 | 38283 ft | 445 kts | 11° |
| 2026-04-23 23:02 | 50.76525 | -4.57444 | 38288 ft | 444 kts | 11° |
| 2026-04-23 23:03 | 50.82530 | -4.55115 | 38284 ft | 444 kts | 11° |
| 2026-04-23 23:03 | 50.88527 | -4.52782 | 38285 ft | 443 kts | 11° |
| 2026-04-23 23:04 | 50.94521 | -4.50444 | 38284 ft | 443 kts | 11° |
| 2026-04-23 23:04 | 51.00507 | -4.48103 | 38287 ft | 443 kts | 11° |
| 2026-04-23 23:05 | 51.06487 | -4.45759 | 38295 ft | 442 kts | 11° |
| 2026-04-23 23:05 | 51.12459 | -4.43409 | 38297 ft | 442 kts | 11° |
| 2026-04-23 23:06 | 51.18433 | -4.41054 | 38298 ft | 442 kts | 11° |
| 2026-04-23 23:06 | 51.24400 | -4.38695 | 38300 ft | 442 kts | 11° |
| 2026-04-23 23:07 | 51.30372 | -4.36328 | 38306 ft | 442 kts | 11° |
| 2026-04-23 23:07 | 51.36303 | -4.33970 | 38311 ft | 442 kts | 11° |
| 2026-04-23 23:08 | 51.42174 | -4.31020 | 38317 ft | 445 kts | 21° |
| 2026-04-23 23:08 | 51.47570 | -4.26123 | 38318 ft | 447 kts | 30° |
| 2026-04-23 23:09 | 51.52836 | -4.20763 | 38330 ft | 447 kts | 30° |
| 2026-04-23 23:09 | 51.58133 | -4.15532 | 38327 ft | 447 kts | 28° |
| 2026-04-23 23:10 | 51.63514 | -4.10505 | 38332 ft | 447 kts | 28° |
| 2026-04-23 23:10 | 51.68880 | -4.05438 | 38340 ft | 447 kts | 28° |
| 2026-04-23 23:11 | 51.74238 | -4.00328 | 38341 ft | 448 kts | 29° |
| 2026-04-23 23:11 | 51.79599 | -3.95195 | 38353 ft | 448 kts | 29° |
| 2026-04-23 23:12 | 51.84942 | -3.90065 | 38344 ft | 447 kts | 29° |
| 2026-04-23 23:12 | 51.90284 | -3.84921 | 38351 ft | 447 kts | 29° |
| 2026-04-23 23:13 | 51.95638 | -3.79753 | 38355 ft | 447 kts | 29° |
| 2026-04-23 23:13 | 52.00985 | -3.74576 | 38358 ft | 448 kts | 29° |
| 2026-04-23 23:14 | 52.06298 | -3.69415 | 38366 ft | 448 kts | 29° |
| 2026-04-23 23:14 | 52.11637 | -3.64216 | 38371 ft | 447 kts | 29° |
| 2026-04-23 23:15 | 52.17009 | -3.58970 | 38376 ft | 447 kts | 29° |
| 2026-04-23 23:15 | 52.22298 | -3.53793 | 38383 ft | 447 kts | 29° |
| 2026-04-23 23:16 | 52.27676 | -3.48725 | 38392 ft | 445 kts | 24° |
| 2026-04-23 23:16 | 52.33246 | -3.44308 | 38397 ft | 444 kts | 24° |
| 2026-04-23 23:17 | 52.38922 | -3.40434 | 38397 ft | 440 kts | 10° |
| 2026-04-23 23:17 | 52.44976 | -3.39150 | 38392 ft | 438 kts | 5° |
| 2026-04-23 23:18 | 52.51034 | -3.37999 | 38400 ft | 438 kts | 5° |
| 2026-04-23 23:18 | 52.57089 | -3.36832 | 38399 ft | 438 kts | 5° |
| 2026-04-23 23:19 | 52.63133 | -3.35659 | 38406 ft | 438 kts | 5° |
| 2026-04-23 23:19 | 52.69188 | -3.34482 | 38408 ft | 438 kts | 5° |
| 2026-04-23 23:20 | 52.75229 | -3.33302 | 38406 ft | 437 kts | 5° |
| 2026-04-23 23:20 | 52.81282 | -3.32117 | 38410 ft | 437 kts | 5° |
| 2026-04-23 23:21 | 52.87285 | -3.30939 | 38409 ft | 437 kts | 5° |
| 2026-04-23 23:21 | 52.93319 | -3.29751 | 38403 ft | 437 kts | 5° |
| 2026-04-23 23:22 | 52.99355 | -3.28561 | 38400 ft | 437 kts | 5° |
| 2026-04-23 23:22 | 53.05385 | -3.27367 | 38402 ft | 437 kts | 5° |
| 2026-04-23 23:23 | 53.11428 | -3.26168 | 38404 ft | 437 kts | 5° |
| 2026-04-23 23:23 | 53.17464 | -3.24967 | 38412 ft | 437 kts | 6° |
| 2026-04-23 23:24 | 53.23497 | -3.23762 | 38412 ft | 437 kts | 6° |
| 2026-04-23 23:24 | 53.29534 | -3.22554 | 38414 ft | 437 kts | 6° |
| 2026-04-23 23:25 | 53.35578 | -3.21341 | 38416 ft | 437 kts | 6° |
| 2026-04-23 23:25 | 53.41613 | -3.20125 | 38416 ft | 437 kts | 6° |
| 2026-04-23 23:26 | 53.47647 | -3.18907 | 38414 ft | 437 kts | 6° |
| 2026-04-23 23:26 | 53.53688 | -3.17684 | 38407 ft | 437 kts | 6° |
| 2026-04-23 23:27 | 53.59718 | -3.16459 | 38406 ft | 437 kts | 6° |
| 2026-04-23 23:27 | 53.65762 | -3.15229 | 38406 ft | 437 kts | 6° |
| 2026-04-23 23:28 | 53.71791 | -3.14000 | 38319 ft | 434 kts | 7° |
| 2026-04-23 23:28 | 53.77745 | -3.12785 | 38317 ft | 431 kts | 7° |
| 2026-04-23 23:29 | 53.83715 | -3.11558 | 38315 ft | 432 kts | 7° |
| 2026-04-23 23:29 | 53.89677 | -3.10329 | 38319 ft | 432 kts | 7° |
| 2026-04-23 23:30 | 53.95626 | -3.09100 | 38316 ft | 432 kts | 7° |
| 2026-04-23 23:30 | 54.01592 | -3.07864 | 38323 ft | 432 kts | 7° |
| 2026-04-23 23:31 | 54.07560 | -3.06624 | 38324 ft | 432 kts | 7° |
| 2026-04-23 23:31 | 54.13480 | -3.05390 | 38326 ft | 432 kts | 7° |
| 2026-04-23 23:32 | 54.19442 | -3.04145 | 38331 ft | 432 kts | 7° |
| 2026-04-23 23:32 | 54.25405 | -3.02895 | 38331 ft | 431 kts | 7° |
| 2026-04-23 23:33 | 54.31357 | -3.01643 | 38332 ft | 431 kts | 7° |
| 2026-04-23 23:33 | 54.37321 | -3.00385 | 38333 ft | 432 kts | 7° |
| 2026-04-23 23:34 | 54.43279 | -2.99124 | 38311 ft | 432 kts | 7° |
| 2026-04-23 23:34 | 54.46266 | -2.98491 | 38031 ft | 432 kts | 7° |
| 2026-04-23 23:34 | 54.49246 | -2.97858 | 37503 ft | 430 kts | 7° |
| 2026-04-23 23:34 | 54.51206 | -2.97442 | 37164 ft | 427 kts | 7° |
| 2026-04-23 23:35 | 54.55124 | -2.96609 | 36472 ft | 421 kts | 7° |
| 2026-04-23 23:35 | 54.57035 | -2.96201 | 36128 ft | 418 kts | 7° |
| 2026-04-23 23:35 | 54.59924 | -2.95585 | 35446 ft | 418 kts | 7° |
| 2026-04-23 23:35 | 54.62820 | -2.94966 | 34720 ft | 420 kts | 7° |
| 2026-04-23 23:36 | 54.65717 | -2.94346 | 33937 ft | 420 kts | 8° |
| 2026-04-23 23:36 | 54.68619 | -2.93724 | 33129 ft | 421 kts | 8° |
| 2026-04-23 23:36 | 54.71522 | -2.93100 | 32355 ft | 421 kts | 8° |
| 2026-04-23 23:36 | 54.74430 | -2.92475 | 31594 ft | 421 kts | 8° |
| 2026-04-23 23:37 | 54.77337 | -2.91849 | 30862 ft | 420 kts | 8° |
| 2026-04-23 23:37 | 54.80238 | -2.91224 | 30052 ft | 420 kts | 8° |
| 2026-04-23 23:37 | 54.83131 | -2.90601 | 29214 ft | 419 kts | 7° |
| 2026-04-23 23:37 | 54.86042 | -2.90394 | 28394 ft | 419 kts | 358° |
| 2026-04-23 23:38 | 54.88941 | -2.91051 | 27471 ft | 422 kts | 348° |
| 2026-04-23 23:38 | 54.91729 | -2.92544 | 26458 ft | 428 kts | 339° |
| 2026-04-23 23:38 | 54.94481 | -2.94554 | 25471 ft | 431 kts | 338° |
| 2026-04-23 23:38 | 54.97297 | -2.96595 | 24510 ft | 434 kts | 338° |
| 2026-04-23 23:39 | 55.00091 | -2.98616 | 23502 ft | 436 kts | 338° |
| 2026-04-23 23:39 | 55.02894 | -3.00647 | 22427 ft | 437 kts | 338° |
| 2026-04-23 23:39 | 55.05666 | -3.02660 | 21408 ft | 437 kts | 338° |
| 2026-04-23 23:39 | 55.08464 | -3.04696 | 20502 ft | 434 kts | 338° |
| 2026-04-23 23:40 | 55.11234 | -3.06714 | 19766 ft | 428 kts | 337° |
| 2026-04-23 23:40 | 55.13960 | -3.08704 | 19063 ft | 422 kts | 337° |
| 2026-04-23 23:40 | 55.16656 | -3.10676 | 18306 ft | 417 kts | 337° |
| 2026-04-23 23:40 | 55.19314 | -3.12622 | 17520 ft | 411 kts | 337° |
| 2026-04-23 23:41 | 55.21933 | -3.14544 | 16739 ft | 406 kts | 336° |
| 2026-04-23 23:41 | 55.24521 | -3.16448 | 15997 ft | 401 kts | 336° |
| 2026-04-23 23:41 | 55.27079 | -3.18295 | 15262 ft | 396 kts | 339° |
| 2026-04-23 23:41 | 55.29734 | -3.19528 | 14545 ft | 392 kts | 349° |
| 2026-04-23 23:42 | 55.32433 | -3.19919 | 13788 ft | 389 kts | 359° |
| 2026-04-23 23:42 | 55.35125 | -3.19586 | 13008 ft | 386 kts | 4° |
| 2026-04-23 23:42 | 55.37786 | -3.19161 | 12247 ft | 382 kts | 4° |
| 2026-04-23 23:42 | 55.40424 | -3.18753 | 11505 ft | 379 kts | 4° |
| 2026-04-23 23:43 | 55.43044 | -3.18349 | 10775 ft | 377 kts | 4° |
| 2026-04-23 23:43 | 55.45651 | -3.17945 | 10032 ft | 374 kts | 4° |
| 2026-04-23 23:43 | 55.48234 | -3.17543 | 9252 ft | 371 kts | 4° |
| 2026-04-23 23:43 | 55.50796 | -3.17143 | 8488 ft | 368 kts | 4° |
| 2026-04-23 23:44 | 55.53339 | -3.16746 | 7821 ft | 364 kts | 5° |
| 2026-04-23 23:44 | 55.55805 | -3.16360 | 7545 ft | 348 kts | 5° |
| 2026-04-23 23:44 | 55.58153 | -3.15991 | 7447 ft | 328 kts | 5° |
| 2026-04-23 23:44 | 55.60358 | -3.15644 | 7437 ft | 308 kts | 5° |
| 2026-04-23 23:45 | 55.62427 | -3.15318 | 7422 ft | 290 kts | 4° |
| 2026-04-23 23:45 | 55.64401 | -3.15008 | 7130 ft | 283 kts | 4° |
| 2026-04-23 23:45 | 55.66329 | -3.14705 | 6663 ft | 285 kts | 5° |
| 2026-04-23 23:45 | 55.68309 | -3.14400 | 6153 ft | 286 kts | 2° |
| 2026-04-23 23:46 | 55.70266 | -3.14906 | 5641 ft | 286 kts | 337° |
| 2026-04-23 23:46 | 55.71891 | -3.16868 | 5150 ft | 285 kts | 311° |
| 2026-04-23 23:46 | 55.72862 | -3.19885 | 4637 ft | 283 kts | 287° |
| 2026-04-23 23:46 | 55.73381 | -3.23202 | 4202 ft | 281 kts | 283° |
| 2026-04-23 23:47 | 55.73836 | -3.26552 | 4037 ft | 269 kts | 283° |
| 2026-04-23 23:47 | 55.74272 | -3.29688 | 4001 ft | 253 kts | 283° |
| 2026-04-23 23:47 | 55.74701 | -3.32615 | 3997 ft | 238 kts | 284° |
| 2026-04-23 23:47 | 55.75115 | -3.35330 | 3999 ft | 224 kts | 284° |
| 2026-04-23 23:48 | 55.75526 | -3.37974 | 4005 ft | 225 kts | 284° |
| 2026-04-23 23:48 | 55.75949 | -3.40676 | 4001 ft | 223 kts | 285° |
| 2026-04-23 23:48 | 55.76364 | -3.43318 | 4003 ft | 223 kts | 285° |
| 2026-04-23 23:48 | 55.76776 | -3.45942 | 4001 ft | 223 kts | 285° |
| 2026-04-23 23:49 | 55.77606 | -3.51253 | 4000 ft | 223 kts | 284° |
| 2026-04-23 23:49 | 55.78182 | -3.53789 | 4003 ft | 223 kts | 307° |
| 2026-04-23 23:49 | 55.79339 | -3.55626 | 4002 ft | 225 kts | 318° |
| 2026-04-23 23:50 | 55.80187 | -3.57898 | 4003 ft | 223 kts | 285° |
| 2026-04-23 23:50 | 55.80201 | -3.60609 | 4004 ft | 222 kts | 251° |
| 2026-04-23 23:50 | 55.79618 | -3.63137 | 3996 ft | 222 kts | 255° |
| 2026-04-23 23:50 | 55.79657 | -3.65846 | 3999 ft | 224 kts | 288° |
| 2026-04-23 23:51 | 55.80524 | -3.68099 | 3997 ft | 225 kts | 322° |
| 2026-04-23 23:51 | 55.81950 | -3.69160 | 3999 ft | 225 kts | 355° |
| 2026-04-23 23:51 | 55.83469 | -3.68667 | 4001 ft | 224 kts | 28° |
| 2026-04-23 23:51 | 55.84675 | -3.66947 | 4000 ft | 223 kts | 49° |
| 2026-04-23 23:52 | 55.85628 | -3.64785 | 4002 ft | 221 kts | 57° |
| 2026-04-23 23:52 | 55.86427 | -3.62542 | 3997 ft | 207 kts | 60° |
| 2026-04-23 23:52 | 55.87140 | -3.60423 | 3998 ft | 192 kts | 60° |
| 2026-04-23 23:52 | 55.87827 | -3.58401 | 4006 ft | 193 kts | 60° |
| 2026-04-23 23:53 | 55.88519 | -3.56366 | 3987 ft | 192 kts | 60° |
| 2026-04-23 23:53 | 55.89213 | -3.54320 | 3777 ft | 194 kts | 60° |
| 2026-04-23 23:53 | 55.89927 | -3.52217 | 3324 ft | 204 kts | 60° |
| 2026-04-23 23:53 | 55.90678 | -3.50023 | 2467 ft | 219 kts | 58° |
| 2026-04-23 23:54 | 55.91466 | -3.47760 | 1384 ft | 212 kts | 59° |
| 2026-04-23 23:54 | 55.92200 | -3.45601 | 852 ft | 186 kts | 59° |
| 2026-04-23 23:54 | 55.92798 | -3.43773 | 711 ft | 158 kts | 60° |
| 2026-04-23 23:54 | 55.93324 | -3.42203 | 612 ft | 139 kts | 59° |
| 2026-04-23 23:55 | 55.93873 | -3.40576 | 437 ft | 158 kts | 59° |
| 2026-04-23 23:55 | 55.94402 | -3.39014 | 234 ft | 138 kts | 59° |
| 2026-04-23 23:55 | 55.94859 | -3.37642 | 129 ft | 120 kts | 59° |
| 2026-04-23 23:55 | 55.95284 | -3.36415 | 111 ft | 95 kts | 58° |
| 2026-04-23 23:56 | 55.95506 | -3.35762 | 112 ft | 55 kts | 59° |
| 2026-04-23 23:56 | 55.95543 | -3.35421 | 112 ft | 13 kts | 172° |
| 2026-04-23 23:56 | 55.95467 | -3.35397 | 111 ft | 0 kts | 158° |
| 2026-04-23 23:57 | 55.95422 | -3.35407 | 109 ft | 11 kts | 207° |
| 2026-04-23 23:57 | 55.95389 | -3.35525 | 112 ft | 20 kts | 240° |
| 2026-04-23 23:57 | 55.95298 | -3.35797 | 111 ft | 28 kts | 238° |
| 2026-04-23 23:58 | 55.95211 | -3.36055 | 111 ft | 13 kts | 239° |
| 2026-04-23 23:58 | 55.95162 | -3.36201 | 111 ft | 12 kts | 238° |
| 2026-04-23 23:58 | 55.95103 | -3.36363 | 112 ft | 19 kts | 223° |
| 2026-04-23 23:58 | 55.95009 | -3.36432 | 111 ft | 17 kts | 226° |
| 2026-04-23 23:59 | 55.94934 | -3.36533 | 112 ft | 6 kts | 155° |
| 2026-04-23 23:59 | 55.94904 | -3.36493 | 110 ft | 0 kts | 147° |